Time;durP1;ratioP1;P1;durP2;ratioP2;P2;SDS_P1;SDS_P2;PMS_P1;PMS_P2;Temp;Humidity;BMP_temperature;BMP_pressure;BME280_temperature;BME280_humidity;BME280_pressure;Samples;Min_cycle;Max_cycle;Signal;HPM_P1;HPM_P2
2022/05/29 00:00:53;;;;;;;;;2.00;2.00;;;;;15.41;43.05;101324.56;5110844;27;45445;-84
2022/05/29 00:03:19;;;;;;;;;1.25;1.25;;;;;15.10;43.58;101270.88;5110773;27;45521;-80
2022/05/29 00:05:46;;;;;;;;;0.75;0.75;;;;;15.27;43.63;101297.78;5092308;27;45480;-82
2022/05/29 00:08:17;;;;;;;;;1.00;1.00;;;;;15.21;43.67;101298.50;5111246;27;45544;-82
2022/05/29 00:10:43;;;;;;;;;1.50;1.50;;;;;15.13;43.64;101292.13;5110508;27;45783;-82
2022/05/29 00:13:11;;;;;;;;;2.00;2.00;;;;;14.99;43.86;101268.81;5111186;27;45438;-79
2022/05/29 00:15:37;;;;;;;;;1.00;1.00;;;;;15.03;43.82;101283.94;5110855;27;45537;-79
2022/05/29 00:18:03;;;;;;;;;1.00;1.00;;;;;15.20;43.82;101309.94;5110696;27;45772;-82
2022/05/29 00:20:28;;;;;;;;;2.00;1.25;;;;;15.19;43.94;101313.47;5111060;27;45440;-81
2022/05/29 00:22:54;;;;;;;;;2.00;1.50;;;;;15.00;44.10;101282.09;5110685;27;45499;-79
2022/05/29 00:25:19;;;;;;;;;2.00;2.00;;;;;15.06;44.21;101297.22;5110957;27;45700;-84
2022/05/29 00:27:46;;;;;;;;;1.00;1.00;;;;;15.10;44.37;101304.41;5110843;27;45416;-79
2022/05/29 00:30:13;;;;;;;;;2.00;2.00;;;;;15.06;44.15;101291.94;5110827;27;46287;-80
2022/05/29 00:32:38;;;;;;;;;1.00;1.00;;;;;14.99;44.15;101282.94;5109946;27;45440;-79
2022/05/29 00:35:04;;;;;;;;;2.00;2.00;;;;;14.90;44.25;101273.00;5110771;27;45729;-80
2022/05/29 00:37:36;;;;;;;;;2.00;2.00;;;;;14.86;44.35;101264.97;5110912;27;45469;-82
2022/05/29 00:40:02;;;;;;;;;1.00;1.00;;;;;15.02;44.39;101298.88;5111702;27;46830;-79
2022/05/29 00:42:27;;;;;;;;;1.50;1.00;;;;;14.79;44.37;101249.78;5114394;27;46260;-82
2022/05/29 00:44:52;;;;;;;;;1.00;1.00;;;;;14.87;44.69;101272.94;5095606;27;45820;-78
2022/05/29 00:47:20;;;;;;;;;1.50;1.50;;;;;14.90;44.35;101272.13;5113745;27;45846;-80
2022/05/29 00:49:49;;;;;;;;;1.00;1.00;;;;;15.08;44.46;101309.66;5113785;27;45779;-82
2022/05/29 00:52:24;;;;;;;;;2.00;2.00;;;;;15.07;44.76;101312.25;5114478;27;45867;-79
2022/05/29 00:54:56;;;;;;;;;2.00;2.00;;;;;14.70;44.80;101250.44;5113531;27;45529;-81
2022/05/29 00:57:31;;;;;;;;;1.50;1.50;;;;;14.71;44.75;101276.03;5114734;27;45439;-81
2022/05/29 01:00:00;;;;;;;;;1.00;1.00;;;;;14.94;44.74;101311.06;5094703;27;48310;-81
2022/05/29 01:02:26;;;;;;;;;3.00;2.75;;;;;14.68;44.87;101270.69;5113103;27;45877;-80
2022/05/29 01:04:51;;;;;;;;;1.00;1.00;;;;;14.65;45.20;101270.59;5114251;27;45459;-80
2022/05/29 01:07:20;;;;;;;;;2.00;2.00;;;;;14.55;45.34;101253.59;5095709;27;45726;-82
2022/05/29 01:09:49;;;;;;;;;2.25;1.25;;;;;14.61;45.14;101264.31;5094490;27;46491;-79
2022/05/29 01:12:52;;;;;;;;;2.00;1.75;;;;;14.87;45.72;101309.09;5114049;27;45519;-80
2022/05/29 01:15:20;;;;;;;;;2.00;1.00;;;;;14.85;45.53;101308.16;5114526;27;45656;-79
2022/05/29 01:18:07;;;;;;;;;1.25;1.25;;;;;14.83;45.73;101308.13;5112853;27;45593;-80
2022/05/29 01:21:10;;;;;;;;;1.00;1.00;;;;;14.53;45.70;101257.94;5113463;27;46409;-81
2022/05/29 01:23:42;;;;;;;;;1.00;1.00;;;;;14.79;45.60;101298.31;5113416;27;45713;-79
2022/05/29 01:26:20;;;;;;;;;1.25;1.25;;;;;14.77;45.76;101293.81;5113119;27;45720;-81
2022/05/29 01:28:58;;;;;;;;;2.00;2.00;;;;;14.59;45.28;101279.28;5113291;27;45817;-78
2022/05/29 01:31:45;;;;;;;;;1.00;1.00;;;;;14.67;45.90;101292.69;5112043;27;47090;-80
2022/05/29 01:34:19;;;;;;;;;2.00;1.00;;;;;14.50;45.88;101270.19;5090542;27;45685;-81
2022/05/29 01:37:02;;;;;;;;;3.00;2.00;;;;;14.61;46.17;101281.94;5113249;27;45597;-78
2022/05/29 01:39:38;;;;;;;;;1.75;1.75;;;;;14.45;46.37;101262.09;5094534;27;45506;-81
2022/05/29 01:42:12;;;;;;;;;1.00;1.00;;;;;14.54;46.33;101282.66;5113321;27;46494;-79
2022/05/29 01:44:54;;;;;;;;;2.00;2.00;;;;;14.46;46.62;101274.47;5094787;27;46278;-80
2022/05/29 01:47:27;;;;;;;;;3.00;2.25;;;;;14.23;46.70;101235.91;5094565;27;45748;-83
2022/05/29 01:50:00;;;;;;;;;2.00;1.25;;;;;14.31;46.55;101247.59;5113467;27;46029;-81
2022/05/29 01:52:32;;;;;;;;;1.50;1.50;;;;;14.02;46.76;101208.03;5112831;27;45724;-80
2022/05/29 01:55:29;;;;;;;;;2.00;2.00;;;;;14.43;46.83;101280.56;5113082;27;45726;-79
2022/05/29 01:58:01;;;;;;;;;2.00;1.00;;;;;14.31;46.61;101264.34;5113565;27;45475;-84
2022/05/29 02:00:27;;;;;;;;;1.00;1.00;;;;;14.19;47.22;101243.78;5113398;27;45638;-80
2022/05/29 02:03:13;;;;;;;;;1.50;1.00;;;;;14.35;47.19;101271.53;5112207;27;46321;-78
2022/05/29 02:05:56;;;;;;;;;2.00;2.00;;;;;14.04;47.22;101230.13;5112213;27;46107;-82
2022/05/29 02:08:36;;;;;;;;;1.50;1.00;;;;;14.30;47.15;101280.19;5112905;27;45543;-79
2022/05/29 02:11:10;;;;;;;;;1.00;1.00;;;;;14.07;47.44;101238.13;5098036;27;45901;-83
2022/05/29 02:14:01;;;;;;;;;1.75;1.75;;;;;14.25;47.49;101276.53;5092191;27;46455;-78
2022/05/29 02:16:36;;;;;;;;;2.50;2.00;;;;;13.84;47.80;101213.72;5091954;27;46044;-82
2022/05/29 02:19:38;;;;;;;;;1.25;1.25;;;;;14.19;47.95;101279.91;5092370;27;45535;-82
2022/05/29 02:22:09;;;;;;;;;2.00;2.00;;;;;14.15;48.03;101281.53;5058544;27;45682;-78
2022/05/29 02:24:43;;;;;;;;;2.00;1.00;;;;;13.74;48.16;101208.09;5091224;27;45403;-81
2022/05/29 02:27:25;;;;;;;;;1.00;1.00;;;;;14.08;48.30;101270.75;5092496;27;45997;-81
2022/05/29 02:29:51;;;;;;;;;2.00;1.75;;;;;13.84;48.19;101237.50;5092094;27;45934;-78
2022/05/29 02:32:51;;;;;;;;;2.00;2.00;;;;;13.92;48.71;101251.81;5091920;27;45649;-79
2022/05/29 02:35:50;;;;;;;;;1.00;1.00;;;;;13.89;48.69;101240.22;5092891;27;46455;-80
2022/05/29 02:38:28;;;;;;;;;2.00;2.00;;;;;13.86;48.69;101245.44;5092331;27;45786;-82
2022/05/29 02:40:59;;;;;;;;;2.25;2.00;;;;;13.93;49.01;101253.59;5091606;27;45331;-80
2022/05/29 02:43:52;;;;;;;;;1.25;1.25;;;;;13.83;48.72;101248.88;5091672;27;45740;-80
2022/05/29 02:46:33;;;;;;;;;3.00;3.00;;;;;13.89;49.00;101250.81;5072780;27;48469;-83
2022/05/29 02:49:11;;;;;;;;;2.00;2.00;;;;;13.60;49.32;101197.16;5091610;27;45465;-83
2022/05/29 02:51:49;;;;;;;;;2.00;2.00;;;;;13.81;49.35;101247.06;5092190;27;45315;-81
2022/05/29 02:54:26;;;;;;;;;1.50;1.50;;;;;13.82;49.53;101251.50;5091986;27;45561;-83
2022/05/29 02:56:56;;;;;;;;;2.00;2.00;;;;;13.74;49.58;101240.69;5091495;27;45736;-81
2022/05/29 02:59:50;;;;;;;;;2.00;2.00;;;;;13.78;49.57;101245.22;5073359;27;45710;-82
2022/05/29 03:02:21;;;;;;;;;2.25;1.25;;;;;13.68;49.64;101229.94;5070331;27;45331;-81
2022/05/29 03:05:13;;;;;;;;;3.00;2.00;;;;;13.75;49.87;101244.25;5072448;27;45442;-81
2022/05/29 03:07:54;;;;;;;;;2.75;2.00;;;;;13.74;49.95;101247.72;5069307;27;47142;-80
2022/05/29 03:10:26;;;;;;;;;2.50;2.00;;;;;13.30;49.89;101168.06;5081099;27;45804;-80
2022/05/29 03:13:10;;;;;;;;;2.25;2.00;;;;;13.72;50.21;101237.13;5111978;27;45567;-82
2022/05/29 03:16:16;;;;;;;;;1.00;1.00;;;;;13.47;50.03;101201.16;5092229;27;45351;-80
2022/05/29 03:18:46;;;;;;;;;2.00;2.00;;;;;13.67;50.32;101239.63;5092805;27;46738;-81
2022/05/29 03:21:11;;;;;;;;;5.00;2.25;;;;;13.64;50.67;101238.63;5093405;27;45612;-79
2022/05/29 03:24:04;;;;;;;;;1.75;1.75;;;;;13.39;50.53;101195.63;5111115;27;45693;-80
2022/05/29 03:26:47;;;;;;;;;2.00;2.00;;;;;13.59;50.44;101225.28;5110335;27;45751;-83
2022/05/29 03:29:40;;;;;;;;;2.00;2.00;;;;;13.47;50.66;101218.75;5111737;27;46375;-81
2022/05/29 03:32:07;;;;;;;;;2.00;2.00;;;;;13.24;50.89;101181.97;5110994;27;45479;-83
2022/05/29 03:34:32;;;;;;;;;2.00;2.00;;;;;12.74;50.86;101102.09;5111690;27;45733;-80
2022/05/29 03:36:58;;;;;;;;;1.50;1.50;;;;;13.26;51.01;101185.56;5111553;27;45693;-82
2022/05/29 03:39:23;;;;;;;;;2.75;2.00;;;;;13.18;51.33;101190.56;5111574;27;45399;-83
2022/05/29 03:41:51;;;;;;;;;2.75;2.75;;;;;13.41;51.24;101223.00;5111219;27;45468;-78
2022/05/29 03:44:21;;;;;;;;;2.50;2.50;;;;;13.22;51.26;101188.97;5111953;27;45453;-83
2022/05/29 03:46:46;;;;;;;;;2.25;2.00;;;;;13.35;51.29;101216.63;5110542;27;45858;-82
2022/05/29 03:49:14;;;;;;;;;3.00;3.00;;;;;13.10;51.53;101181.53;5112069;27;45503;-83
2022/05/29 03:51:40;;;;;;;;;3.00;3.00;;;;;13.24;51.75;101208.38;5111639;27;45980;-84
2022/05/29 03:54:06;;;;;;;;;4.50;3.00;;;;;13.10;51.53;101186.81;5110884;27;45334;-83
2022/05/29 03:56:32;;;;;;;;;4.25;3.75;;;;;13.37;51.85;101233.41;5111015;27;45508;-82
2022/05/29 03:58:57;;;;;;;;;3.00;2.25;;;;;13.35;51.71;101232.47;5111312;27;46787;-80
2022/05/29 04:01:24;;;;;;;;;3.00;3.00;;;;;13.24;51.79;101223.31;5111223;27;45423;-83
2022/05/29 04:03:53;;;;;;;;;2.00;2.00;;;;;13.07;51.88;101180.53;5111528;27;45669;-84
2022/05/29 04:06:18;;;;;;;;;1.75;1.75;;;;;13.18;51.66;101208.16;5112223;27;45383;-83
2022/05/29 04:14:11;;;;;;;;;2.75;2.75;;;;;13.28;51.95;101226.09;5112574;27;45403;-84
2022/05/29 04:16:36;;;;;;;;;3.00;2.00;;;;;13.20;52.18;101211.75;5114227;27;45948;-78
2022/05/29 04:19:02;;;;;;;;;3.00;2.75;;;;;13.13;52.26;101201.81;5114782;27;46411;-82
2022/05/29 04:21:27;;;;;;;;;4.00;3.00;;;;;13.00;52.22;101175.88;5115402;27;45659;-83
2022/05/29 04:23:53;;;;;;;;;2.25;2.25;;;;;12.96;52.02;101169.66;5114836;27;45460;-83
2022/05/29 04:26:19;;;;;;;;;3.00;3.00;;;;;13.05;52.14;101190.13;5115828;27;45348;-81
2022/05/29 04:28:44;;;;;;;;;4.00;4.00;;;;;12.99;52.11;101169.72;5115149;27;45564;-82
2022/05/29 04:31:10;;;;;;;;;2.75;2.00;;;;;13.23;52.43;101226.81;5114633;27;45578;-84
2022/05/29 04:33:36;;;;;;;;;1.50;1.50;;;;;13.19;52.29;101212.56;5115411;27;45411;-83
2022/05/29 04:36:02;;;;;;;;;2.00;2.00;;;;;13.26;52.22;101222.53;5114892;27;45477;-84
2022/05/29 04:38:28;;;;;;;;;2.00;2.00;;;;;13.13;52.28;101199.19;5095790;27;48223;-83
2022/05/29 04:40:54;;;;;;;;;3.00;2.00;;;;;13.35;52.22;101228.09;5114590;27;45623;-83
2022/05/29 04:43:20;;;;;;;;;2.00;2.00;;;;;12.93;52.18;101155.44;5097001;27;45571;-84
2022/05/29 04:45:46;;;;;;;;;3.00;3.00;;;;;13.15;52.33;101193.13;5114240;27;45855;-84
2022/05/29 04:48:14;;;;;;;;;2.75;2.75;;;;;13.13;52.41;101189.53;5114635;27;46372;-81
2022/05/29 04:50:39;;;;;;;;;2.00;2.00;;;;;13.27;52.39;101211.09;5095934;27;45892;-83
2022/05/29 04:53:06;;;;;;;;;3.50;3.50;;;;;13.31;52.38;101214.75;5114880;27;45697;-84
2022/05/29 04:55:31;;;;;;;;;2.25;2.00;;;;;13.29;52.31;101208.50;5096135;27;45652;-83
2022/05/29 04:57:57;;;;;;;;;2.00;2.00;;;;;13.09;52.24;101171.78;5095894;27;47138;-83
2022/05/29 05:00:23;;;;;;;;;3.25;3.00;;;;;13.16;52.22;101187.00;5114159;27;45438;-81
2022/05/29 05:02:48;;;;;;;;;3.25;2.00;;;;;12.97;52.63;101158.22;5114451;27;45461;-82
2022/05/29 05:05:15;;;;;;;;;2.00;2.00;;;;;13.10;52.35;101175.31;5115102;27;45720;-83
2022/05/29 05:07:41;;;;;;;;;2.00;1.75;;;;;13.31;52.66;101210.38;5114198;27;45714;-83
2022/05/29 05:10:11;;;;;;;;;2.00;2.00;;;;;13.39;52.65;101216.75;5114842;27;45749;-84
2022/05/29 05:12:37;;;;;;;;;3.25;3.25;;;;;13.43;52.42;101220.38;5114335;27;45452;-81
2022/05/29 05:15:03;;;;;;;;;2.00;2.00;;;;;13.38;52.53;101209.69;5113722;27;45588;-82
2022/05/29 05:17:28;;;;;;;;;2.25;2.00;;;;;13.15;52.53;101165.81;5113561;27;46513;-80
2022/05/29 05:19:53;;;;;;;;;2.25;2.25;;;;;13.25;52.61;101188.13;5113877;27;45588;-83
2022/05/29 05:22:19;;;;;;;;;3.00;2.00;;;;;13.16;52.41;101160.59;5113960;27;45736;-84
2022/05/29 05:24:44;;;;;;;;;3.00;3.00;;;;;13.17;52.54;101158.84;5113731;27;45432;-82
2022/05/29 05:27:12;;;;;;;;;2.75;2.25;;;;;13.29;52.57;101190.91;5112918;27;45556;-78
2022/05/29 05:29:38;;;;;;;;;3.00;2.00;;;;;13.49;52.37;101227.59;5112880;27;45871;-83
2022/05/29 05:32:04;;;;;;;;;5.00;2.67;;;;;13.33;52.68;101182.25;5095060;27;45567;-83
2022/05/29 05:34:29;;;;;;;;;3.75;2.50;;;;;13.47;52.30;101205.53;5114035;27;45468;-83
2022/05/29 05:36:55;;;;;;;;;3.00;3.00;;;;;13.52;52.62;101215.38;5093767;27;46959;-82
2022/05/29 05:39:21;;;;;;;;;3.00;3.00;;;;;13.37;52.66;101186.78;5114209;27;45311;-81
2022/05/29 05:41:47;;;;;;;;;3.00;2.25;;;;;13.60;52.72;101218.28;5113680;27;45229;-84
2022/05/29 05:44:15;;;;;;;;;3.75;2.25;;;;;13.62;52.74;101228.03;5095150;27;45517;-83
2022/05/29 05:46:46;;;;;;;;;3.00;2.50;;;;;13.50;52.65;101197.72;5113161;27;46511;-79
2022/05/29 05:49:12;;;;;;;;;2.00;2.00;;;;;13.54;52.47;101200.47;5113334;27;45789;-79
2022/05/29 05:51:38;;;;;;;;;2.00;2.00;;;;;13.46;52.43;101186.16;5112840;27;45660;-82
2022/05/29 05:54:03;;;;;;;;;4.00;3.75;;;;;13.41;52.54;101178.09;5113941;27;45420;-79
2022/05/29 05:56:29;;;;;;;;;5.00;3.50;;;;;13.57;52.27;101197.03;5113271;27;45762;-80
2022/05/29 05:58:54;;;;;;;;;3.25;3.00;;;;;13.47;52.69;101174.75;5112866;27;45842;-83
2022/05/29 06:01:20;;;;;;;;;2.50;2.50;;;;;13.55;52.60;101188.19;5112572;27;45874;-80
2022/05/29 06:03:45;;;;;;;;;3.00;3.00;;;;;13.56;52.89;101176.78;5095106;27;45461;-83
2022/05/29 06:06:10;;;;;;;;;3.00;3.00;;;;;13.39;52.31;101148.09;5113457;27;45612;-82
2022/05/29 06:08:36;;;;;;;;;3.00;3.00;;;;;13.64;52.23;101193.72;5113556;27;45672;-83
2022/05/29 06:11:02;;;;;;;;;2.00;2.00;;;;;13.64;52.61;101193.72;5113431;27;45481;-83
2022/05/29 06:13:28;;;;;;;;;3.00;3.00;;;;;13.58;52.22;101172.41;5112573;27;45493;-83
2022/05/29 06:15:53;;;;;;;;;3.00;3.00;;;;;13.71;52.69;101198.34;5112888;27;45565;-84
2022/05/29 06:18:19;;;;;;;;;3.00;3.00;;;;;13.86;52.09;101212.00;5113621;27;45337;-84
2022/05/29 06:20:46;;;;;;;;;2.25;2.00;;;;;13.75;52.39;101181.75;5113334;27;45878;-84
2022/05/29 06:23:12;;;;;;;;;2.00;2.00;;;;;13.80;52.18;101182.75;5113494;27;45776;-84
2022/05/29 06:25:42;;;;;;;;;1.75;1.75;;;;;13.78;52.01;101179.16;5112876;27;46440;-82
2022/05/29 06:28:08;;;;;;;;;2.25;2.25;;;;;13.92;51.97;101201.59;5112946;27;45741;-84
2022/05/29 06:30:35;;;;;;;;;2.00;1.75;;;;;13.96;51.75;101197.28;5112682;27;45649;-79
2022/05/29 06:33:01;;;;;;;;;3.00;2.00;;;;;13.99;51.86;101207.03;5112933;27;45349;-78
2022/05/29 06:35:27;;;;;;;;;2.00;2.00;;;;;13.92;52.04;101192.78;5112739;27;46661;-83
2022/05/29 06:37:53;;;;;;;;;3.25;3.25;;;;;13.99;51.72;101191.19;5112853;27;45789;-81
2022/05/29 06:40:19;;;;;;;;;2.75;2.00;;;;;13.86;51.54;101175.00;5113516;27;45619;-84
2022/05/29 06:42:44;;;;;;;;;2.00;2.00;;;;;13.90;51.15;101176.88;5112547;27;45296;-84
2022/05/29 06:45:10;;;;;;;;;2.75;2.00;;;;;13.86;51.25;101163.53;5112877;27;46411;-83
2022/05/29 06:47:37;;;;;;;;;3.75;3.00;;;;;14.01;50.99;101178.94;5112459;27;45721;-84
2022/05/29 06:50:03;;;;;;;;;3.25;2.00;;;;;14.26;51.03;101218.38;5112736;27;45594;-79
2022/05/29 06:52:31;;;;;;;;;2.00;1.50;;;;;14.03;50.60;101171.91;5113418;27;45612;-83
2022/05/29 06:54:57;;;;;;;;;3.00;2.00;;;;;14.14;50.86;101184.59;5112739;27;46558;-84
2022/05/29 06:57:39;;;;;;;;;3.00;3.00;;;;;14.04;50.50;101169.34;5112439;27;45712;-82
2022/05/29 07:08:31;;;;;;;;;2.50;2.00;;;;;14.26;49.63;101207.81;5112791;27;46193;-82
2022/05/29 07:11:00;;;;;;;;;2.00;1.00;;;;;14.33;49.54;101200.94;5105140;27;45416;-84
2022/05/29 07:13:27;;;;;;;;;2.25;1.75;;;;;14.38;49.42;101196.66;5107917;27;46080;-79
2022/05/29 07:15:52;;;;;;;;;2.00;1.50;;;;;14.49;49.19;101208.47;5118901;27;45334;-80
2022/05/29 07:18:18;;;;;;;;;3.00;2.50;;;;;14.52;49.21;101221.75;5101767;27;45409;-83
2022/05/29 07:20:43;;;;;;;;;3.25;3.25;;;;;14.14;49.43;101149.34;5111525;27;45823;-80
2022/05/29 07:23:09;;;;;;;;;2.00;2.00;;;;;14.30;49.12;101172.69;5101713;27;45495;-83
2022/05/29 07:25:35;;;;;;;;;2.25;2.00;;;;;14.28;48.84;101169.06;5091036;27;45467;-81
2022/05/29 07:28:00;;;;;;;;;2.00;2.00;;;;;14.42;48.69;101190.59;5091106;27;45510;-80
2022/05/29 07:30:25;;;;;;;;;2.00;1.75;;;;;14.36;48.90;101178.13;5108094;27;45622;-79
2022/05/29 07:32:51;;;;;;;;;1.75;1.00;;;;;14.45;48.69;101174.81;5111275;27;45715;-81
2022/05/29 07:35:19;;;;;;;;;1.00;1.00;;;;;14.46;48.69;101169.56;5111169;27;45683;-83
2022/05/29 07:37:44;;;;;;;;;2.00;1.75;;;;;14.43;48.42;101148.34;5110007;27;45480;-83
2022/05/29 07:40:10;;;;;;;;;2.00;2.00;;;;;14.48;48.33;101147.56;5117931;27;45682;-79
2022/05/29 07:45:20;;;;;;;;;3.00;2.00;;;;;14.90;47.95;101201.56;5127856;27;45234;-84
2022/05/29 07:47:48;;;;;;;;;2.00;2.00;;;;;14.81;47.46;101172.22;5125578;27;45343;-82
2022/05/29 07:50:18;;;;;;;;;1.00;1.00;;;;;14.87;47.62;101171.47;5124234;27;45431;-80
2022/05/29 07:52:44;;;;;;;;;2.00;2.00;;;;;14.79;47.49;101151.88;5089863;27;45613;-82
2022/05/29 07:55:10;;;;;;;;;1.50;1.50;;;;;14.91;46.72;101168.03;5101112;27;46199;-79
2022/05/29 07:57:36;;;;;;;;;2.25;2.25;;;;;15.10;46.62;101178.19;5098187;27;45505;-79
2022/05/29 08:00:01;;;;;;;;;1.25;1.00;;;;;14.67;46.33;101099.56;5100429;27;45706;-78
2022/05/29 08:02:26;;;;;;;;;1.75;1.75;;;;;14.85;46.18;101134.41;5098071;27;45813;-78
2022/05/29 08:04:53;;;;;;;;;2.00;2.00;;;;;14.49;46.00;101064.75;5099756;27;45595;-79
2022/05/29 08:07:20;;;;;;;;;1.00;1.00;;;;;14.67;45.83;101078.38;5100313;27;45980;-78
2022/05/29 08:09:45;;;;;;;;;2.00;2.00;;;;;14.84;45.65;101114.09;5100574;27;45957;-83
2022/05/29 08:12:11;;;;;;;;;2.00;2.00;;;;;15.27;44.80;101152.13;5104517;27;45693;-84
2022/05/29 08:14:36;;;;;;;;;2.00;1.00;;;;;15.57;44.83;101188.09;5101809;27;45695;-81
2022/05/29 08:17:02;;;;;;;;;1.00;1.00;;;;;15.63;44.56;101185.56;5100563;27;45571;-84
2022/05/29 08:19:28;;;;;;;;;1.50;1.00;;;;;15.62;44.71;101165.22;5084546;27;45511;-84
2022/05/29 08:21:53;;;;;;;;;1.25;1.00;;;;;15.70;43.91;101147.75;5102620;27;45426;-85
2022/05/29 08:32:34;;;;;;;;;1.50;1.50;;;;;15.61;42.82;101073.31;5115453;27;45445;-83
2022/05/29 08:35:00;;;;;;;;;1.75;1.00;;;;;16.16;42.05;101146.00;5109376;27;47065;-85
2022/05/29 08:37:25;;;;;;;;;1.00;1.00;;;;;16.33;42.05;101157.78;5108007;27;45471;-80
2022/05/29 08:39:51;;;;;;;;;2.00;1.50;;;;;16.35;42.25;101145.41;5117462;27;45284;-79
2022/05/29 08:42:18;;;;;;;;;1.00;1.00;;;;;16.48;41.33;101142.13;5117426;27;45167;-80
2022/05/29 08:44:47;;;;;;;;;2.00;2.00;;;;;16.39;41.65;101109.22;5117362;27;45183;-78
2022/05/29 08:47:13;;;;;;;;;1.50;1.00;;;;;16.30;42.12;101080.78;5116633;27;45627;-80
2022/05/29 08:49:45;;;;;;;;;3.50;3.00;;;;;16.54;41.92;101129.81;5115963;27;45230;-83
2022/05/29 08:52:21;;;;;;;;;1.25;1.25;;;;;16.67;41.85;101159.25;5115447;27;45295;-79
2022/05/29 08:55:06;;;;;;;;;1.00;1.00;;;;;16.22;41.44;101111.63;5122344;27;46218;-78
2022/05/29 08:57:43;;;;;;;;;2.00;1.75;;;;;15.99;41.49;101109.44;5112689;27;45091;-80
2022/05/29 09:00:38;;;;;;;;;0.00;0.00;;;;;16.17;41.93;101167.22;5115942;27;45184;-80
2022/05/29 09:03:35;;;;;;;;;1.00;0.00;;;;;15.86;42.11;101128.66;5121995;27;45084;-79
2022/05/29 09:06:07;;;;;;;;;1.00;1.00;;;;;15.87;42.00;101151.63;5114496;27;45284;-84
2022/05/29 09:08:51;;;;;;;;;1.00;1.00;;;;;15.84;41.88;101158.63;5120636;27;45443;-79
2022/05/29 09:11:27;;;;;;;;;1.00;1.00;;;;;15.66;42.09;101132.63;5120820;27;45083;-78
2022/05/29 09:14:07;;;;;;;;;2.00;1.75;;;;;14.93;42.25;101015.47;5124674;27;45107;-80
2022/05/29 09:16:42;;;;;;;;;1.00;1.00;;;;;15.63;42.35;101135.22;5118174;27;45912;-81
2022/05/29 09:19:13;;;;;;;;;2.00;2.00;;;;;15.79;42.63;101149.69;5120655;27;45204;-80
2022/05/29 09:21:52;;;;;;;;;2.25;1.00;;;;;15.22;42.81;101010.75;5122374;27;45218;-81
2022/05/29 09:24:39;;;;;;;;;1.25;1.25;;;;;15.72;42.18;101035.63;5121144;27;45053;-80
2022/05/29 09:27:05;;;;;;;;;3.00;2.00;;;;;16.42;42.45;101096.94;5130760;27;45967;-78
2022/05/29 09:29:30;;;;;;;;;2.00;2.00;;;;;16.57;41.25;101075.03;5131237;27;44632;-80
2022/05/29 09:31:56;;;;;;;;;1.00;1.00;;;;;16.49;40.99;101032.47;5129308;27;45056;-80
2022/05/29 09:34:22;;;;;;;;;2.00;2.00;;;;;17.08;40.95;101129.81;5131922;27;45241;-79
2022/05/29 09:37:00;;;;;;;;;1.00;1.00;;;;;17.09;40.51;101125.38;5129984;27;45881;-79
2022/05/29 09:39:42;;;;;;;;;1.00;1.00;;;;;16.46;40.74;101028.91;5120422;27;45372;-82
2022/05/29 09:42:24;;;;;;;;;1.00;1.00;;;;;16.63;40.95;101027.38;5118724;27;45408;-81
2022/05/29 09:45:11;;;;;;;;;1.75;1.00;;;;;16.90;40.26;101028.66;5109910;27;45411;-80
2022/05/29 09:50:27;;;;;;;;;1.75;1.50;;;;;16.99;39.82;101020.78;5110010;27;45130;-80
2022/05/29 09:52:52;;;;;;;;;2.00;2.00;;;;;16.88;39.55;101015.34;5125775;27;45245;-79
2022/05/29 09:55:28;;;;;;;;;1.50;1.50;;;;;17.16;40.59;101071.50;5106674;27;46401;-82
2022/05/29 09:58:02;;;;;;;;;1.00;1.00;;;;;17.26;39.76;101121.22;5119275;27;46560;-79
2022/05/29 10:00:34;;;;;;;;;1.75;1.75;;;;;17.18;39.94;101112.22;5120693;27;45366;-80
2022/05/29 10:03:05;;;;;;;;;1.00;1.00;;;;;16.81;39.24;101074.56;5120005;27;45275;-78
2022/05/29 10:05:36;;;;;;;;;1.00;1.00;;;;;16.39;39.80;101025.22;5122374;27;45100;-79
2022/05/29 10:08:16;;;;;;;;;1.00;1.00;;;;;16.59;39.10;101072.41;5122273;27;46250;-81
2022/05/29 10:10:42;;;;;;;;;1.00;1.00;;;;;16.56;39.07;101083.00;5092867;27;45546;-79
2022/05/29 10:13:08;;;;;;;;;0.00;0.00;;;;;16.63;38.86;101085.75;5113469;27;45218;-79
2022/05/29 10:15:37;;;;;;;;;0.00;0.00;;;;;16.55;39.90;101037.00;5099489;27;46718;-80
2022/05/29 10:18:30;;;;;;;;;1.00;1.00;;;;;17.21;38.74;101086.59;5120766;27;45251;-79
2022/05/29 10:21:21;;;;;;;;;2.50;2.00;;;;;17.27;38.05;101045.94;5112853;27;45325;-80
2022/05/29 10:23:53;;;;;;;;;1.00;0.50;;;;;17.49;38.08;101058.63;5123652;27;45152;-79
2022/05/29 10:26:21;;;;;;;;;1.00;1.00;;;;;17.78;37.88;101085.56;5099631;27;45340;-82
2022/05/29 10:28:47;;;;;;;;;1.50;1.50;;;;;17.34;38.16;100999.06;5124246;27;45788;-81
2022/05/29 10:31:22;;;;;;;;;2.00;2.00;;;;;17.56;37.80;101003.75;5119393;27;45415;-80
2022/05/29 10:34:10;;;;;;;;;0.00;0.00;;;;;18.09;37.58;101091.19;5095936;27;45531;-79
2022/05/29 10:36:38;;;;;;;;;1.75;1.75;;;;;17.92;37.31;101048.44;5072137;27;45704;-80
2022/05/29 10:39:12;;;;;;;;;2.00;2.00;;;;;18.17;37.67;101065.50;5104633;27;46479;-78
2022/05/29 10:41:41;;;;;;;;;2.00;2.00;;;;;18.28;37.15;101068.28;5081836;27;45481;-84
2022/05/29 10:44:10;;;;;;;;;1.00;1.00;;;;;18.35;37.21;101083.41;5104191;27;45870;-78
2022/05/29 10:46:41;;;;;;;;;2.00;2.00;;;;;18.44;37.68;101070.19;5101512;27;45826;-81
2022/05/29 10:49:24;;;;;;;;;2.00;2.00;;;;;18.51;37.31;101068.44;5115641;27;45394;-81
2022/05/29 10:52:27;;;;;;;;;3.75;2.00;;;;;18.41;37.81;101070.16;5128341;27;45391;-79
2022/05/29 10:55:35;;;;;;;;;2.00;2.00;;;;;18.31;37.54;101076.28;5119646;27;45404;-80
2022/05/29 10:58:39;;;;;;;;;5.25;4.25;;;;;18.22;37.72;101070.88;5106971;27;45262;-81
2022/05/29 11:04:35;;;;;;;;;11.00;10.00;;;;;18.32;38.16;101022.16;5130138;27;45641;-83
2022/05/29 11:07:12;;;;;;;;;2.50;2.25;;;;;18.72;37.40;101059.78;5129992;27;45443;-81
2022/05/29 11:09:45;;;;;;;;;2.00;2.00;;;;;18.75;37.44;101063.31;5128817;27;45166;-82
2022/05/29 11:12:27;;;;;;;;;2.25;2.00;;;;;18.69;36.96;101059.75;5129455;27;45464;-80
2022/05/29 11:15:11;;;;;;;;;3.00;2.25;;;;;18.45;36.22;101049.78;5128693;27;45584;-82
2022/05/29 11:18:16;;;;;;;;;3.25;3.25;;;;;18.24;36.51;101047.84;5128866;27;45329;-80
2022/05/29 11:20:55;;;;;;;;;1.25;1.25;;;;;18.10;37.17;101029.09;5124514;27;44985;-80
2022/05/29 11:23:41;;;;;;;;;2.00;2.00;;;;;18.23;37.19;101038.97;5129573;27;45279;-84
2022/05/29 11:26:25;;;;;;;;;3.25;3.00;;;;;18.42;37.58;101033.78;5127992;27;45206;-82
2022/05/29 11:29:01;;;;;;;;;1.50;1.50;;;;;18.54;36.78;101004.59;5111466;27;45243;-80
2022/05/29 11:31:35;;;;;;;;;1.50;1.25;;;;;18.84;35.72;101019.88;5129737;27;45197;-79
2022/05/29 11:34:19;;;;;;;;;1.25;1.25;;;;;18.99;35.99;101016.41;5111360;27;46616;-80
2022/05/29 11:36:56;;;;;;;;;2.00;2.00;;;;;19.26;35.23;101018.28;5130037;27;45213;-81
2022/05/29 11:39:32;;;;;;;;;0.50;0.50;;;;;19.58;35.20;101003.25;5130137;27;45200;-81
2022/05/29 11:42:19;;;;;;;;;0.75;0.75;;;;;19.82;34.88;100993.56;5129985;27;45233;-81
2022/05/29 11:44:57;;;;;;;;;0.50;0.50;;;;;20.03;34.67;100998.88;5129730;27;46320;-81
2022/05/29 11:54:13;;;;;;;;;2.00;2.00;;;;;19.41;34.47;100954.38;5109247;27;45013;-81
2022/05/29 11:56:50;;;;;;;;;0.50;0.25;;;;;19.52;35.04;100976.59;5083775;27;45981;-80
2022/05/29 11:59:26;;;;;;;;;2.00;2.00;;;;;19.52;34.78;100962.38;5090810;27;45500;-80
2022/05/29 12:02:00;;;;;;;;;2.50;1.75;;;;;19.82;35.13;100965.09;5108572;27;45067;-81
2022/05/29 12:04:55;;;;;;;;;1.75;1.75;;;;;20.01;34.00;100928.63;5108833;27;45375;-80
2022/05/29 12:07:33;;;;;;;;;1.75;1.75;;;;;20.30;33.96;100946.41;5108949;27;45896;-81
2022/05/29 12:10:07;;;;;;;;;1.50;1.00;;;;;20.42;34.37;100959.69;5113654;27;45241;-82
2022/05/29 12:12:39;;;;;;;;;1.75;1.75;;;;;20.16;33.96;100938.41;5129560;27;45211;-82
2022/05/29 12:15:13;;;;;;;;;1.25;1.00;;;;;19.73;34.23;100914.41;5129490;27;44986;-81
2022/05/29 12:17:50;;;;;;;;;1.75;1.75;;;;;19.39;33.91;100907.25;5110343;27;47091;-80
2022/05/29 12:20:21;;;;;;;;;1.75;1.50;;;;;19.55;34.55;100967.69;5129416;27;45564;-81
2022/05/29 12:23:02;;;;;;;;;2.00;1.75;;;;;19.44;34.71;100966.81;5129546;27;45160;-80
2022/05/29 12:25:45;;;;;;;;;3.50;2.50;;;;;19.34;34.62;100965.88;5129354;27;45345;-81